Kettle Falls, WA (99141)

1:48 PM PST on December 27, 2014 (GMT -0800)
MesoWest Kettle Falls WA US AGRIMET | Change Station
CLOSE
Current Station
Personal Weather Station
Location: Kettle Falls, WA
Elevation: 1336 ft
Nearby Weather Stations
Active Advisory: Winter Storm Warning

Elev 1336 ft 48.60 °N, 118.12 °W | Updated 48 minutes ago

Overcast
Overcast
32 °F
Feels Like 32 °F
N
0
Wind Variable Wind from North
Gusts 0.0 mph

Today
High -- | Low -- °F
--% Chance of Precip.
Yesterday
High -- | Low -- °F
Precip. -- in
7:44 AM 4:02 PM
Waxing Crescent, 40% visible
Pressure 30.08 in
Visibility 0.5 miles
Clouds
Windchill 32 °F
Dew Point 30 °F
Humidity 95%
Rainfall 0.00 in
Snow Depth Not available.
UV Not available.
Pollen .10 out of 12
Air Quality Not available.
Flu Activity Not available.
METAR KDEW 272053Z AUTO 14005KT 1/2SM SN FG VV004 00/M01 A3002 RMK AO2 SLP186 P0003 60007 T00001006 58038

More Conditions Fewer Conditions

Pressure 30.08 in
Visibility 0.5 miles
Clouds
Windchill 32 °F
Dew Point 30 °F
Humidity 95%
Rainfall 0.00 in
Snow Depth Not available.
UV Not available.
Pollen .10 out of 12
Air Quality Not available.
Flu Activity Not available.
METAR KDEW 272053Z AUTO 14005KT 1/2SM SN FG VV004 00/M01 A3002 RMK AO2 SLP186 P0003 60007 T00001006 58038

More Conditions Fewer Conditions

10-Day Weather Forecast

Almanac

Astronomy

Dec. 27, 2014 Rise Set
Actual Time
Civil Twilight
Nautical Twilight
Astronomical Twilight
Moon
Length of Visible Light
Length of Day
Tomorrow will be .
, % of the Moon is Illuminated

Today's Extremes

State Highs State Lows

Community

WunderPhotos

Upload Photos

1,781,073 photos uploaded!

WunderBlogs® & News

Nearby

Air Quality

  Air Quality AQ Index Pollutant
Not available.

Snow Depth

Station Depth Elevation

Earthquake Activity

City Distance Mag. Time & Date
Minimum magnitude displayed is 2.5.

Coastal Water Temperatures

Place Temperature

Nearby Weather Stations